Time;durP1;ratioP1;P1;durP2;ratioP2;P2;SDS_P1;SDS_P2;PMS_P1;PMS_P2;Temp;Humidity;BMP_temperature;BMP_pressure;BME280_temperature;BME280_humidity;BME280_pressure;Samples;Min_cycle;Max_cycle;Signal;HPM_P1;HPM_P2
2022/08/06 00:02:20;;;;;;;1.70;1.50;;;21.10;99.90;;;;;;5015727;28;20185;-87
2022/08/06 00:04:46;;;;;;;2.50;1.53;;;21.10;99.90;;;;;;5003235;28;20198;-88
2022/08/06 00:07:12;;;;;;;4.30;1.77;;;21.20;99.60;;;;;;5018206;28;20495;-89
2022/08/06 00:09:38;;;;;;;2.83;1.53;;;21.30;99.40;;;;;;5005646;28;20464;-88
2022/08/06 00:12:04;;;;;;;2.70;1.60;;;21.30;98.00;;;;;;5001187;28;20462;-88
2022/08/06 00:14:31;;;;;;;1.93;1.57;;;21.20;98.10;;;;;;5017163;28;20197;-89
2022/08/06 00:16:57;;;;;;;2.97;1.90;;;21.00;98.00;;;;;;5010843;28;20511;-88
2022/08/06 00:19:23;;;;;;;9.20;1.93;;;20.80;99.00;;;;;;4998651;28;21214;-89
2022/08/06 00:21:49;;;;;;;3.00;1.70;;;20.80;99.80;;;;;;5012693;28;20178;-86
2022/08/06 00:24:15;;;;;;;1.20;1.10;;;20.80;99.70;;;;;;5000964;28;20811;-87
2022/08/06 00:26:40;;;;;;;2.73;1.90;;;20.70;99.20;;;;;;5003550;28;20467;-87
2022/08/06 00:29:06;;;;;;;4.57;2.00;;;20.70;99.90;;;;;;5001764;28;20247;-86
2022/08/06 00:31:33;;;;;;;2.77;1.83;;;22.30;99.90;;;;;;5006433;28;20437;-89
2022/08/06 00:34:01;;;;;;;1.90;1.50;;;20.50;99.60;;;;;;5007509;28;20492;-86
2022/08/06 00:36:28;;;;;;;2.37;1.87;;;20.40;99.90;;;;;;5000515;28;21004;-89
2022/08/06 00:38:53;;;;;;;5.30;2.30;;;20.30;99.90;;;;;;5003363;28;20445;-87
2022/08/06 00:41:20;;;;;;;2.70;1.97;;;20.20;99.90;;;;;;4999397;28;20788;-90
2022/08/06 00:43:46;;;;;;;3.13;1.70;;;20.10;99.90;;;;;;5001071;28;20190;-86
2022/08/06 00:46:11;;;;;;;3.80;2.10;;;20.00;99.90;;;;;;5002847;28;20518;-89
2022/08/06 00:48:37;;;;;;;1.80;1.70;;;20.00;99.90;;;;;;5002069;28;20194;-88
2022/08/06 00:51:03;;;;;;;2.03;1.60;;;20.20;99.90;;;;;;5000711;28;20193;-87
2022/08/06 00:53:29;;;;;;;3.37;2.10;;;20.20;99.90;;;;;;5015387;28;20198;-87
2022/08/06 00:55:55;;;;;;;2.30;2.10;;;20.20;99.90;;;;;;5005578;28;20464;-89
2022/08/06 00:58:21;;;;;;;2.60;1.80;;;20.20;99.90;;;;;;5005574;28;20467;-88
2022/08/06 01:00:46;;;;;;;3.07;1.73;;;20.30;99.90;;;;;;5004588;28;20186;-87
2022/08/06 01:03:16;;;;;;;2.50;1.43;;;20.40;99.90;;;;;;5003725;28;20170;-87
2022/08/06 01:05:43;;;;;;;2.13;1.77;;;20.30;99.90;;;;;;5036697;28;20256;-86
2022/08/06 01:08:08;;;;;;;1.93;1.50;;;20.20;99.90;;;;;;5006207;28;20491;-89
2022/08/06 01:10:34;;;;;;;3.47;1.80;;;20.20;99.90;;;;;;5002563;28;21019;-88
2022/08/06 01:13:02;;;;;;;2.70;1.80;;;20.20;99.90;;;;;;5002013;28;20207;-86
2022/08/06 01:15:27;;;;;;;4.13;2.20;;;20.30;99.90;;;;;;5011151;28;20299;-88
2022/08/06 01:18:25;;;;;;;2.80;1.80;;;20.40;99.90;;;;;;5000777;28;21504;-88
2022/08/06 01:21:03;;;;;;;2.10;1.70;;;20.40;99.90;;;;;;4999605;28;20187;-87
2022/08/06 01:23:53;;;;;;;10.10;2.70;;;20.30;99.90;;;;;;5014479;28;21831;-88
2022/08/06 01:26:34;;;;;;;1.80;1.70;;;20.30;99.90;;;;;;5013971;28;20453;-88
2022/08/06 01:29:18;;;;;;;1.70;1.60;;;20.30;99.90;;;;;;5007867;28;20455;-87
2022/08/06 01:32:07;;;;;;;2.97;2.00;;;20.40;99.90;;;;;;5008233;28;20483;-86
2022/08/06 01:34:46;;;;;;;2.20;1.97;;;20.30;99.90;;;;;;5004013;28;20456;-86
2022/08/06 01:37:23;;;;;;;1.53;1.43;;;20.20;99.90;;;;;;5014520;28;20558;-89
2022/08/06 01:39:54;;;;;;;1.93;1.73;;;20.10;99.90;;;;;;5013975;28;20444;-87
2022/08/06 01:42:21;;;;;;;2.30;1.80;;;19.90;99.90;;;;;;5001048;28;20437;-86
2022/08/06 01:44:49;;;;;;;3.73;2.20;;;19.90;99.90;;;;;;5004049;28;20433;-85
2022/08/06 01:47:18;;;;;;;5.07;2.40;;;19.90;99.90;;;;;;5002270;28;20465;-88
2022/08/06 01:49:50;;;;;;;2.53;1.77;;;19.90;99.90;;;;;;5011846;28;20441;-89
2022/08/06 01:52:17;;;;;;;5.67;2.07;;;19.90;99.90;;;;;;5015650;28;20440;-88
2022/08/06 01:54:47;;;;;;;2.40;1.93;;;19.90;99.90;;;;;;5015656;28;20960;-86
2022/08/06 01:57:17;;;;;;;3.53;1.77;;;20.00;99.90;;;;;;5006518;28;20543;-86
2022/08/06 01:59:48;;;;;;;2.30;1.90;;;20.20;99.90;;;;;;5022078;28;20469;-86
2022/08/06 02:02:19;;;;;;;6.10;2.00;;;21.10;99.90;;;;;;5019419;28;20495;-88
2022/08/06 02:04:47;;;;;;;6.60;2.00;;;20.00;99.90;;;;;;5007292;28;20459;-88
2022/08/06 02:07:16;;;;;;;5.67;1.80;;;20.00;99.90;;;;;;5004911;28;20453;-89
2022/08/06 02:09:44;;;;;;;3.30;2.00;;;20.00;99.90;;;;;;5006013;28;20468;-88
2022/08/06 02:12:24;;;;;;;2.20;2.00;;;20.00;99.90;;;;;;5002225;28;20440;-88
2022/08/06 02:15:00;;;;;;;2.60;1.93;;;20.00;99.90;;;;;;5015470;28;20445;-87
2022/08/06 02:17:33;;;;;;;2.90;2.20;;;19.90;99.90;;;;;;5004492;28;20491;-87
2022/08/06 02:20:00;;;;;;;4.27;2.50;;;19.90;99.90;;;;;;5011361;28;20491;-89
2022/08/06 02:22:33;;;;;;;2.87;2.03;;;19.90;99.90;;;;;;5003664;28;21408;-86
2022/08/06 02:25:03;;;;;;;3.30;2.00;;;20.00;99.90;;;;;;5007540;28;20544;-87
2022/08/06 02:27:30;;;;;;;3.23;1.80;;;20.00;99.90;;;;;;5012694;28;20493;-86
2022/08/06 02:29:59;;;;;;;2.00;1.70;;;20.00;99.90;;;;;;5003834;28;21483;-86
2022/08/06 02:32:24;;;;;;;3.17;2.00;;;19.90;99.90;;;;;;5012279;28;20463;-86
2022/08/06 02:34:50;;;;;;;5.37;2.43;;;19.90;99.90;;;;;;5001097;28;20437;-87
2022/08/06 02:37:21;;;;;;;6.07;2.03;;;19.80;99.90;;;;;;5028100;28;20225;-86
2022/08/06 02:39:55;;;;;;;3.63;2.30;;;19.70;99.90;;;;;;5020704;28;20187;-85
2022/08/06 02:42:28;;;;;;;8.67;1.93;;;19.70;99.90;;;;;;5007754;28;20489;-88
2022/08/06 02:45:12;;;;;;;4.40;1.80;;;19.60;99.90;;;;;;5000881;28;20444;-86
2022/08/06 02:47:48;;;;;;;1.97;1.70;;;19.60;99.90;;;;;;4997782;28;20444;-85
2022/08/06 02:50:17;;;;;;;4.47;2.57;;;19.60;99.90;;;;;;5007525;28;20455;-87
2022/08/06 02:52:55;;;;;;;3.83;2.03;;;19.60;99.90;;;;;;5010217;28;20476;-86
2022/08/06 02:55:28;;;;;;;3.33;2.40;;;19.40;99.90;;;;;;5001952;28;20464;-87
2022/08/06 02:58:07;;;;;;;4.10;2.20;;;19.20;99.90;;;;;;4999784;28;20475;-85
2022/08/06 03:00:36;;;;;;;4.13;1.90;;;19.00;99.90;;;;;;4990663;28;20428;-89
2022/08/06 03:03:04;;;;;;;10.90;2.20;;;18.90;99.90;;;;;;4989187;28;20436;-85
2022/08/06 03:05:30;;;;;;;5.83;2.50;;;18.70;99.90;;;;;;4983012;28;20464;-85
2022/08/06 03:07:58;;;;;;;5.87;2.43;;;18.70;99.90;;;;;;4986234;28;20544;-85
2022/08/06 03:10:26;;;;;;;4.30;2.33;;;18.30;99.90;;;;;;5008836;28;20482;-89
2022/08/06 03:12:53;;;;;;;2.47;2.27;;;18.20;99.90;;;;;;4989656;28;20445;-91
2022/08/06 03:15:19;;;;;;;2.93;2.30;;;18.20;99.90;;;;;;4990664;28;20799;-86
2022/08/06 03:17:46;;;;;;;4.10;2.27;;;18.00;99.90;;;;;;4996888;28;20478;-87
2022/08/06 03:20:15;;;;;;;3.43;2.87;;;17.90;99.90;;;;;;5009060;28;20448;-87
2022/08/06 03:22:41;;;;;;;4.43;1.80;;;17.90;99.90;;;;;;5006480;28;20462;-86
2022/08/06 03:25:09;;;;;;;3.20;2.00;;;17.90;99.90;;;;;;4997558;28;20441;-88
2022/08/06 03:27:37;;;;;;;2.63;2.30;;;17.90;99.90;;;;;;5011993;28;20445;-86
2022/08/06 03:30:03;;;;;;;5.20;2.50;;;17.80;99.90;;;;;;5014396;28;20444;-86
2022/08/06 03:32:29;;;;;;;4.57;2.40;;;17.70;99.90;;;;;;4998256;28;20464;-85
2022/08/06 03:34:57;;;;;;;4.20;2.70;;;17.90;99.90;;;;;;4998076;28;20445;-85
2022/08/06 03:37:23;;;;;;;2.60;1.87;;;17.90;99.90;;;;;;5000343;28;20477;-88
2022/08/06 03:39:50;;;;;;;4.77;2.30;;;17.80;99.90;;;;;;5001790;28;20551;-88
2022/08/06 03:42:16;;;;;;;2.70;2.50;;;17.80;99.90;;;;;;5023015;28;20448;-87
2022/08/06 03:44:42;;;;;;;3.93;2.07;;;17.90;99.90;;;;;;5014724;28;21140;-88
2022/08/06 03:47:21;;;;;;;2.70;2.30;;;18.00;99.90;;;;;;5002324;28;20464;-88
2022/08/06 03:49:59;;;;;;;5.20;2.77;;;18.00;99.90;;;;;;4995368;28;20185;-88
2022/08/06 03:52:29;;;;;;;4.47;2.30;;;18.10;99.90;;;;;;4997633;28;21059;-88
2022/08/06 03:54:58;;;;;;;3.20;2.30;;;18.10;99.90;;;;;;5017492;28;20450;-88
2022/08/06 03:57:30;;;;;;;4.77;2.20;;;18.10;99.90;;;;;;5008306;28;20518;-88
2022/08/06 04:00:00;;;;;;;4.33;3.00;;;18.20;99.90;;;;;;5001451;28;20436;-89
2022/08/06 04:02:39;;;;;;;6.33;3.03;;;18.00;99.90;;;;;;4999867;28;20575;-89
2022/08/06 04:05:06;;;;;;;4.87;2.00;;;17.90;99.90;;;;;;4998316;28;20443;-86
2022/08/06 04:07:32;;;;;;;4.67;2.90;;;17.70;99.90;;;;;;5011887;28;22582;-87
2022/08/06 04:10:00;;;;;;;5.13;2.50;;;17.60;99.90;;;;;;5026005;28;20422;-86
2022/08/06 04:12:27;;;;;;;3.37;2.60;;;17.50;99.90;;;;;;5022092;28;20459;-88
2022/08/06 04:14:53;;;;;;;12.37;2.87;;;19.20;99.90;;;;;;5022467;28;20838;-86
2022/08/06 04:17:20;;;;;;;2.57;2.33;;;17.60;99.90;;;;;;5010242;28;20507;-88
2022/08/06 04:19:48;;;;;;;5.43;2.13;;;17.80;99.90;;;;;;5001782;28;20436;-89
2022/08/06 04:22:15;;;;;;;5.87;2.30;;;17.50;99.90;;;;;;5014381;28;20459;-86
2022/08/06 04:24:40;;;;;;;4.60;2.80;;;17.50;99.90;;;;;;5000684;28;21332;-88
2022/08/06 04:27:07;;;;;;;4.40;2.83;;;17.50;99.90;;;;;;5000799;28;20563;-85
2022/08/06 04:29:36;;;;;;;8.20;2.73;;;17.50;99.90;;;;;;4997910;28;20181;-87
2022/08/06 04:32:03;;;;;;;5.33;2.70;;;17.60;99.90;;;;;;5003076;28;20447;-89
2022/08/06 04:34:30;;;;;;;5.53;2.73;;;17.70;99.90;;;;;;5008611;28;20447;-88
2022/08/06 04:36:58;;;;;;;5.47;2.73;;;17.80;99.90;;;;;;5019880;28;20468;-86
2022/08/06 04:39:25;;;;;;;6.10;2.70;;;17.90;99.90;;;;;;5005659;28;20447;-89
2022/08/06 04:41:51;;;;;;;5.00;2.70;;;17.90;99.90;;;;;;5014176;28;21082;-87
2022/08/06 04:44:17;;;;;;;3.20;2.90;;;17.90;99.90;;;;;;5004339;28;20456;-86
2022/08/06 04:46:48;;;;;;;3.40;3.10;;;18.00;99.90;;;;;;4999403;28;20828;-85
2022/08/06 04:49:14;;;;;;;4.33;2.90;;;18.10;99.90;;;;;;5007067;28;20210;-88
2022/08/06 04:51:47;;;;;;;4.30;2.43;;;18.10;99.90;;;;;;5018622;28;20716;-88
2022/08/06 04:54:16;;;;;;;5.50;3.00;;;20.10;99.90;;;;;;5009797;28;20456;-89
2022/08/06 04:56:43;;;;;;;3.30;2.60;;;19.40;99.90;;;;;;5014640;28;20489;-87
2022/08/06 04:59:10;;;;;;;3.03;2.57;;;20.60;99.90;;;;;;5012094;28;20440;-89
2022/08/06 05:01:36;;;;;;;5.00;2.53;;;21.90;99.90;;;;;;5013823;28;20436;-88
2022/08/06 05:04:03;;;;;;;3.70;3.10;;;23.10;99.90;;;;;;5000848;28;20440;-88
2022/08/06 05:06:31;;;;;;;2.60;2.40;;;23.60;99.90;;;;;;4999002;28;20825;-90
2022/08/06 05:09:02;;;;;;;3.13;2.50;;;23.30;99.90;;;;;;5014381;28;20445;-87
2022/08/06 05:11:38;;;;;;;5.30;2.67;;;22.60;99.90;;;;;;5015325;28;20929;-86
2022/08/06 05:14:13;;;;;;;4.63;2.90;;;21.90;99.90;;;;;;5008852;28;20439;-88
2022/08/06 05:16:43;;;;;;;5.47;2.73;;;21.60;99.90;;;;;;5001299;28;20459;-88
2022/08/06 05:19:14;;;;;;;3.77;2.47;;;21.20;99.90;;;;;;5000791;28;20520;-85
2022/08/06 05:21:41;;;;;;;5.47;3.17;;;21.10;99.90;;;;;;5012440;28;20433;-86
2022/08/06 05:24:07;;;;;;;3.87;3.37;;;21.00;99.90;;;;;;5011056;28;20444;-87
2022/08/06 05:26:34;;;;;;;2.70;2.37;;;22.00;99.90;;;;;;4999996;28;20469;-90
2022/08/06 05:28:59;;;;;;;4.97;2.27;;;23.60;99.90;;;;;;5005854;28;20425;-88
2022/08/06 05:31:31;;;;;;;3.10;2.13;;;24.40;99.90;;;;;;4997025;28;20463;-85
2022/08/06 05:33:56;;;;;;;5.23;2.03;;;25.80;98.50;;;;;;5015974;28;20286;-88
2022/08/06 05:36:22;;;;;;;3.23;2.10;;;26.50;94.20;;;;;;5000241;28;21028;-88
2022/08/06 05:38:47;;;;;;;3.43;2.47;;;26.50;92.50;;;;;;5000335;28;20217;-88
2022/08/06 05:41:13;;;;;;;5.20;3.00;;;26.90;91.80;;;;;;5030048;28;20193;-89
2022/08/06 05:43:39;;;;;;;3.97;2.73;;;26.90;90.60;;;;;;5027527;28;20185;-86
2022/08/06 05:46:10;;;;;;;3.53;2.40;;;26.90;90.20;;;;;;5013624;28;20202;-90
2022/08/06 05:48:43;;;;;;;6.87;3.00;;;27.40;88.30;;;;;;4998482;28;20494;-90
2022/08/06 05:51:12;;;;;;;2.83;2.10;;;27.80;86.40;;;;;;5003432;28;20452;-85
2022/08/06 05:53:43;;;;;;;2.60;2.40;;;27.70;84.80;;;;;;5013197;28;20466;-88
2022/08/06 05:56:17;;;;;;;4.03;3.30;;;28.00;83.90;;;;;;4997984;28;20449;-87
2022/08/06 05:58:55;;;;;;;4.47;2.30;;;28.60;82.30;;;;;;4995841;28;20533;-90
2022/08/06 06:01:22;;;;;;;10.53;2.67;;;28.70;79.10;;;;;;5015295;28;20759;-88
2022/08/06 06:03:49;;;;;;;8.33;2.23;;;28.70;77.30;;;;;;5016282;28;20918;-90
2022/08/06 06:06:15;;;;;;;5.40;2.67;;;29.10;76.60;;;;;;4994939;28;20474;-90
2022/08/06 06:08:43;;;;;;;6.20;2.07;;;29.30;74.30;;;;;;5000649;28;20558;-90
2022/08/06 06:11:10;;;;;;;6.07;2.50;;;29.10;73.80;;;;;;4995543;28;20444;-89
2022/08/06 06:13:38;;;;;;;3.00;2.00;;;28.10;73.80;;;;;;4997380;28;20433;-89
2022/08/06 06:16:18;;;;;;;3.70;2.37;;;27.00;76.90;;;;;;4997357;28;20464;-87
2022/08/06 06:19:07;;;;;;;4.53;2.10;;;27.50;77.70;;;;;;4992903;28;20472;-89
2022/08/06 06:22:02;;;;;;;2.40;2.20;;;27.30;76.20;;;;;;5006649;28;20437;-87
2022/08/06 06:24:35;;;;;;;5.47;1.87;;;26.80;75.70;;;;;;4984460;28;20446;-90
2022/08/06 06:27:38;;;;;;;3.00;2.13;;;27.20;77.40;;;;;;4996918;28;20488;-87
2022/08/06 06:30:10;;;;;;;5.47;2.33;;;27.30;76.30;;;;;;5005392;28;20440;-87
2022/08/06 06:32:42;;;;;;;3.40;2.17;;;27.40;73.70;;;;;;5008902;28;20445;-89
2022/08/06 06:35:31;;;;;;;1.90;1.70;;;27.20;74.70;;;;;;5011368;28;20551;-87
2022/08/06 06:38:18;;;;;;;3.87;2.20;;;26.50;74.70;;;;;;5011650;28;20452;-89
2022/08/06 06:41:08;;;;;;;3.87;2.10;;;27.00;74.70;;;;;;4994028;28;20475;-90
2022/08/06 06:43:55;;;;;;;3.13;1.90;;;27.10;74.60;;;;;;4997916;28;20440;-88
2022/08/06 06:46:25;;;;;;;2.23;2.03;;;28.10;72.70;;;;;;4995477;28;20461;-89
2022/08/06 06:48:54;;;;;;;2.03;1.83;;;29.80;67.10;;;;;;4998543;28;22561;-88
2022/08/06 06:51:48;;;;;;;6.10;1.70;;;30.00;63.70;;;;;;4999211;28;20440;-89
2022/08/06 06:54:22;;;;;;;3.03;1.50;;;28.80;64.30;;;;;;4992749;28;20461;-89
2022/08/06 06:56:50;;;;;;;2.33;1.93;;;29.30;66.00;;;;;;5003129;28;20457;-88
2022/08/06 06:59:21;;;;;;;3.03;1.90;;;30.30;61.20;;;;;;5002104;28;20438;-90
2022/08/06 07:01:48;;;;;;;5.27;1.97;;;30.20;60.70;;;;;;4999355;28;20443;-91
2022/08/06 07:04:16;;;;;;;3.23;2.17;;;30.80;59.70;;;;;;4990237;28;20583;-89
2022/08/06 07:06:44;;;;;;;2.47;1.60;;;31.20;58.40;;;;;;5001076;28;20455;-88
2022/08/06 07:09:15;;;;;;;5.30;1.57;;;31.70;56.90;;;;;;5005411;28;20442;-91
2022/08/06 07:11:44;;;;;;;3.33;1.30;;;31.00;56.50;;;;;;5007059;28;20470;-89
2022/08/06 07:14:10;;;;;;;2.90;1.70;;;31.40;56.30;;;;;;5025101;28;20592;-86
2022/08/06 07:16:37;;;;;;;2.87;2.00;;;32.60;54.00;;;;;;5010040;28;20466;-90
2022/08/06 07:19:05;;;;;;;5.77;2.93;;;33.50;52.20;;;;;;5003547;28;20464;-88
2022/08/06 07:21:32;;;;;;;2.97;2.77;;;34.10;49.90;;;;;;5004491;28;20448;-92
2022/08/06 07:23:58;;;;;;;2.50;2.33;;;34.40;48.80;;;;;;5014035;28;20448;-89
2022/08/06 07:26:25;;;;;;;5.10;2.97;;;34.10;49.80;;;;;;5002860;28;22676;-91
2022/08/06 07:28:53;;;;;;;3.17;2.87;;;34.40;46.30;;;;;;4986340;28;20448;-90
2022/08/06 07:31:23;;;;;;;4.10;2.83;;;34.10;46.70;;;;;;5002298;28;20904;-91
2022/08/06 07:33:57;;;;;;;3.30;2.70;;;33.10;45.80;;;;;;4986154;28;20437;-89
2022/08/06 07:36:25;;;;;;;4.43;2.30;;;32.70;45.90;;;;;;4984511;28;20471;-90
2022/08/06 07:38:59;;;;;;;2.73;2.63;;;32.80;45.50;;;;;;4990763;28;20468;-88
2022/08/06 07:41:26;;;;;;;3.60;2.80;;;32.60;44.80;;;;;;4988836;28;20441;-87
2022/08/06 07:43:54;;;;;;;2.90;2.70;;;32.50;44.40;;;;;;4998141;28;20445;-90
2022/08/06 07:46:27;;;;;;;2.93;2.73;;;31.90;44.40;;;;;;5000540;28;20472;-90
2022/08/06 07:48:56;;;;;;;4.47;1.47;;;31.70;44.90;;;;;;4998646;28;20436;-89
2022/08/06 07:51:26;;;;;;;4.10;3.17;;;31.60;43.60;;;;;;5011622;28;20467;-90
2022/08/06 07:53:53;;;;;;;3.83;2.00;;;30.50;43.50;;;;;;5013652;28;20458;-91
2022/08/06 07:56:19;;;;;;;4.63;2.20;;;30.40;45.30;;;;;;5003946;28;20467;-90
2022/08/06 07:58:45;;;;;;;2.00;1.90;;;30.00;44.70;;;;;;4996131;28;20938;-91
2022/08/06 08:01:12;;;;;;;4.37;2.20;;;29.30;45.50;;;;;;4982787;28;20491;-88
2022/08/06 08:06:26;;;;;;;1.87;1.70;;;30.50;47.10;;;;;;5011387;28;20495;-90
2022/08/06 08:09:18;;;;;;;1.73;1.57;;;29.90;46.50;;;;;;4993406;28;20447;-86
2022/08/06 08:11:46;;;;;;;1.67;1.23;;;29.20;46.60;;;;;;4989673;28;20438;-88
2022/08/06 08:14:13;;;;;;;1.73;1.17;;;29.50;46.50;;;;;;4992500;28;22542;-88
2022/08/06 08:16:40;;;;;;;3.50;1.60;;;29.60;45.70;;;;;;4985453;28;20862;-90
2022/08/06 08:19:33;;;;;;;3.30;1.40;;;29.90;46.30;;;;;;4985966;28;20994;-88
2022/08/06 08:22:05;;;;;;;1.60;1.20;;;30.20;46.00;;;;;;4989586;28;20434;-90
2022/08/06 08:24:32;;;;;;;2.80;1.50;;;31.10;46.10;;;;;;5011042;28;20533;-88
2022/08/06 08:26:58;;;;;;;4.37;1.30;;;30.60;44.20;;;;;;5007726;28;21243;-90
2022/08/06 08:29:24;;;;;;;4.90;1.47;;;30.20;45.00;;;;;;5017090;28;20472;-90
2022/08/06 08:31:49;;;;;;;3.43;1.93;;;30.80;44.70;;;;;;5007671;28;20437;-90
2022/08/06 08:34:15;;;;;;;1.47;1.30;;;30.30;44.00;;;;;;5000046;28;20190;-89
2022/08/06 08:36:41;;;;;;;3.53;1.00;;;31.10;43.90;;;;;;5003181;28;20215;-89
2022/08/06 08:39:07;;;;;;;9.37;1.93;;;32.30;44.40;;;;;;5016233;28;20464;-91
2022/08/06 08:41:40;;;;;;;3.57;1.70;;;31.30;44.00;;;;;;5005053;28;20217;-90
2022/08/06 08:44:07;;;;;;;8.33;1.83;;;31.80;44.10;;;;;;5009164;28;20421;-89
2022/08/06 08:46:37;;;;;;;2.93;1.40;;;31.50;43.10;;;;;;5037678;28;20456;-91
2022/08/06 08:49:07;;;;;;;9.10;2.60;;;32.00;43.60;;;;;;5027254;28;20464;-89
2022/08/06 08:51:36;;;;;;;4.23;1.90;;;31.10;42.90;;;;;;5014398;28;20421;-91
2022/08/06 08:54:08;;;;;;;1.30;1.20;;;30.80;43.20;;;;;;5011286;28;20445;-89
2022/08/06 08:56:36;;;;;;;4.20;1.93;;;31.40;44.10;;;;;;5012498;28;20433;-90
2022/08/06 08:59:03;;;;;;;4.73;2.87;;;32.20;42.80;;;;;;5020645;28;20490;-88
2022/08/06 09:01:29;;;;;;;8.70;3.40;;;31.50;42.10;;;;;;5006426;28;20495;-92
2022/08/06 09:03:55;;;;;;;5.00;3.50;;;30.70;43.20;;;;;;5013302;28;20494;-89
2022/08/06 09:06:21;;;;;;;2.93;2.73;;;30.00;44.10;;;;;;5007128;28;20968;-91
2022/08/06 09:08:47;;;;;;;3.83;3.00;;;30.30;43.20;;;;;;5009088;28;20178;-91
2022/08/06 09:11:13;;;;;;;3.33;3.13;;;30.80;44.60;;;;;;5013823;28;20545;-91
2022/08/06 09:13:39;;;;;;;5.37;2.90;;;31.10;43.80;;;;;;5009925;28;20499;-90
2022/08/06 09:16:05;;;;;;;3.50;3.20;;;31.90;43.60;;;;;;4999212;28;21047;-90
2022/08/06 09:18:31;;;;;;;4.00;3.60;;;32.60;42.30;;;;;;5013990;28;20522;-90
2022/08/06 09:20:59;;;;;;;7.13;3.60;;;32.50;41.60;;;;;;5014031;28;20174;-90
2022/08/06 09:23:25;;;;;;;3.80;3.10;;;31.90;40.20;;;;;;5012603;28;20190;-91
2022/08/06 09:25:52;;;;;;;3.17;2.97;;;32.00;41.60;;;;;;5002966;28;20447;-92
2022/08/06 09:28:29;;;;;;;3.47;3.17;;;32.00;41.30;;;;;;5008643;28;20429;-88
2022/08/06 09:31:15;;;;;;;3.10;2.80;;;31.20;41.30;;;;;;5022092;28;20794;-89
2022/08/06 09:33:42;;;;;;;3.93;3.63;;;30.70;42.20;;;;;;5011542;28;20429;-88
2022/08/06 09:36:13;;;;;;;2.50;2.40;;;31.20;42.50;;;;;;5006525;28;20453;-89
2022/08/06 09:38:59;;;;;;;5.43;3.20;;;31.10;43.40;;;;;;5012322;28;20566;-89
2022/08/06 09:41:29;;;;;;;3.40;3.10;;;32.50;42.30;;;;;;5017502;28;21046;-88
2022/08/06 09:43:56;;;;;;;4.00;3.80;;;33.30;41.10;;;;;;5016552;28;20424;-89
2022/08/06 09:46:40;;;;;;;3.60;3.40;;;33.30;40.20;;;;;;5014305;28;20465;-88
2022/08/06 09:49:06;;;;;;;4.13;3.70;;;32.50;39.20;;;;;;5023343;28;20834;-88
2022/08/06 09:51:34;;;;;;;4.40;3.97;;;32.40;39.70;;;;;;5013755;28;20499;-86
2022/08/06 09:54:03;;;;;;;3.87;3.63;;;31.90;40.10;;;;;;5005804;28;20523;-90
2022/08/06 09:56:28;;;;;;;4.30;3.70;;;32.40;41.10;;;;;;5015099;28;20482;-90
2022/08/06 09:59:03;;;;;;;4.40;4.10;;;31.80;39.60;;;;;;5009177;28;20504;-90
2022/08/06 10:01:42;;;;;;;4.40;3.40;;;30.70;40.90;;;;;;5019585;28;20544;-89
2022/08/06 10:04:13;;;;;;;3.83;3.57;;;30.80;40.40;;;;;;5024596;28;20431;-89
2022/08/06 10:06:56;;;;;;;8.20;3.73;;;30.80;40.00;;;;;;5012135;28;20497;-90
2022/08/06 10:09:24;;;;;;;3.20;3.00;;;31.10;40.70;;;;;;5022225;28;20437;-88
2022/08/06 10:11:50;;;;;;;5.93;3.13;;;31.30;41.40;;;;;;5006394;28;20429;-89
2022/08/06 10:14:34;;;;;;;3.67;3.40;;;30.60;40.40;;;;;;5026096;28;20519;-88
2022/08/06 10:17:08;;;;;;;5.10;3.63;;;30.40;40.80;;;;;;5029331;28;20193;-87
2022/08/06 10:19:34;;;;;;;4.03;3.50;;;31.40;40.80;;;;;;5036071;28;20459;-87
2022/08/06 10:22:07;;;;;;;4.33;3.90;;;32.30;39.90;;;;;;5018572;28;20440;-90
2022/08/06 10:24:40;;;;;;;4.00;3.70;;;32.20;39.60;;;;;;5020157;28;20439;-88
2022/08/06 10:27:07;;;;;;;4.57;4.37;;;32.10;39.10;;;;;;5016747;28;20454;-90
2022/08/06 10:29:35;;;;;;;5.63;3.90;;;31.50;39.10;;;;;;5011955;28;20433;-90
2022/08/06 10:32:03;;;;;;;4.00;3.80;;;31.20;40.00;;;;;;5012563;28;20472;-89
2022/08/06 10:34:32;;;;;;;3.83;3.53;;;30.40;40.70;;;;;;5026160;28;20520;-89
2022/08/06 10:37:05;;;;;;;3.63;2.80;;;29.80;41.20;;;;;;5023852;28;20460;-87
2022/08/06 10:39:34;;;;;;;4.70;3.00;;;28.50;43.20;;;;;;5015593;28;20443;-87
2022/08/06 10:42:01;;;;;;;4.90;2.97;;;27.60;43.60;;;;;;5007540;28;20554;-90
2022/08/06 10:44:27;;;;;;;3.03;2.20;;;27.00;45.80;;;;;;5016530;28;20443;-88
2022/08/06 10:46:53;;;;;;;3.17;2.90;;;26.60;45.60;;;;;;5015933;28;20503;-89
2022/08/06 10:49:20;;;;;;;2.57;2.37;;;26.80;46.20;;;;;;5010639;28;20428;-89
2022/08/06 10:51:50;;;;;;;3.10;2.60;;;26.80;46.70;;;;;;5029509;28;20463;-87
2022/08/06 10:54:18;;;;;;;3.10;2.73;;;26.80;45.90;;;;;;5028000;28;20452;-88
2022/08/06 10:56:46;;;;;;;3.20;3.00;;;26.60;46.00;;;;;;5011155;28;21274;-90
2022/08/06 10:59:13;;;;;;;4.93;2.53;;;26.40;46.10;;;;;;5018218;28;20466;-91
2022/08/06 11:01:49;;;;;;;3.97;2.77;;;25.90;47.20;;;;;;5009567;28;20498;-90
2022/08/06 11:04:30;;;;;;;2.47;2.37;;;25.80;47.70;;;;;;5018073;28;20450;-90
2022/08/06 11:07:17;;;;;;;3.30;2.53;;;25.70;47.60;;;;;;5018987;28;20468;-91
2022/08/06 11:10:07;;;;;;;4.60;2.30;;;25.70;48.20;;;;;;5018558;28;20532;-89
2022/08/06 11:12:54;;;;;;;2.50;2.40;;;25.60;47.70;;;;;;5012522;28;20875;-88
2022/08/06 11:15:21;;;;;;;5.43;2.30;;;25.70;48.60;;;;;;5013888;28;20448;-88
2022/08/06 11:17:47;;;;;;;2.60;2.40;;;25.60;47.60;;;;;;5015901;28;20522;-88
2022/08/06 11:20:32;;;;;;;3.80;2.80;;;25.60;48.10;;;;;;5016979;28;20839;-88
2022/08/06 11:22:58;;;;;;;3.00;2.07;;;25.30;48.60;;;;;;5015317;28;20496;-89
2022/08/06 11:25:40;;;;;;;2.90;2.70;;;25.30;48.80;;;;;;5008518;28;20436;-88
2022/08/06 11:28:07;;;;;;;4.60;2.17;;;25.40;48.40;;;;;;5012394;28;20437;-88
2022/08/06 11:30:44;;;;;;;2.90;2.13;;;25.70;48.10;;;;;;5026547;28;20448;-88
2022/08/06 11:33:10;;;;;;;3.00;2.80;;;25.90;48.80;;;;;;5012100;28;20428;-89
2022/08/06 11:35:36;;;;;;;2.53;2.33;;;26.30;47.70;;;;;;5009138;28;20465;-87
2022/08/06 11:38:04;;;;;;;1.87;1.77;;;26.40;47.40;;;;;;5016611;28;20548;-90
2022/08/06 11:40:55;;;;;;;2.07;1.97;;;26.30;47.90;;;;;;5007207;28;20180;-88
2022/08/06 11:43:40;;;;;;;5.20;1.90;;;26.30;47.20;;;;;;5014923;28;21110;-88
2022/08/06 11:46:18;;;;;;;2.10;1.90;;;26.50;48.50;;;;;;5011452;28;20445;-88
2022/08/06 11:48:59;;;;;;;4.03;2.27;;;26.60;47.10;;;;;;5011991;28;20425;-89
2022/08/06 11:51:52;;;;;;;4.73;2.40;;;26.10;47.60;;;;;;5040549;28;20435;-90
2022/08/06 11:54:28;;;;;;;2.27;2.07;;;25.90;48.00;;;;;;5017180;28;20857;-89
2022/08/06 11:57:08;;;;;;;2.50;2.30;;;25.80;48.00;;;;;;5014560;28;20445;-89
2022/08/06 11:59:35;;;;;;;7.53;2.90;;;26.00;48.00;;;;;;5010859;28;20428;-88
2022/08/06 12:02:06;;;;;;;2.73;2.30;;;26.00;47.30;;;;;;5013868;28;20628;-89
2022/08/06 12:04:35;;;;;;;5.33;2.33;;;25.60;47.70;;;;;;5011775;28;20453;-86
2022/08/06 12:07:20;;;;;;;7.67;2.40;;;25.40;48.40;;;;;;5012788;28;20478;-88
2022/08/06 12:09:58;;;;;;;4.97;1.40;;;25.40;48.00;;;;;;5015396;28;21294;-91
2022/08/06 12:12:24;;;;;;;2.50;2.30;;;25.60;48.20;;;;;;5015545;28;20432;-89
2022/08/06 12:14:50;;;;;;;6.10;1.50;;;26.80;48.60;;;;;;5011062;28;20468;-88
2022/08/06 12:17:20;;;;;;;2.80;2.43;;;26.20;48.70;;;;;;5014719;28;20201;-86
2022/08/06 12:19:50;;;;;;;5.27;2.10;;;26.40;48.10;;;;;;5010858;28;21015;-86
2022/08/06 12:22:19;;;;;;;2.33;2.13;;;26.50;46.90;;;;;;5022750;28;21036;-85
2022/08/06 12:24:47;;;;;;;2.00;1.90;;;26.40;47.50;;;;;;5013172;28;20433;-90
2022/08/06 12:27:14;;;;;;;2.83;1.83;;;26.30;47.00;;;;;;5005439;28;20979;-89
2022/08/06 12:29:40;;;;;;;2.83;1.90;;;26.40;47.30;;;;;;5014196;28;21054;-89
2022/08/06 12:32:35;;;;;;;2.13;1.93;;;26.40;47.40;;;;;;5001977;28;20418;-90
2022/08/06 12:35:10;;;;;;;2.20;2.00;;;26.40;47.30;;;;;;4995964;28;20206;-88
2022/08/06 12:37:47;;;;;;;2.37;2.17;;;26.40;47.80;;;;;;4997293;28;20472;-90
2022/08/06 12:40:27;;;;;;;2.27;2.10;;;26.30;46.40;;;;;;5007316;28;20432;-89
2022/08/06 12:43:05;;;;;;;2.13;1.93;;;26.30;46.40;;;;;;5002729;28;20434;-91
2022/08/06 12:45:56;;;;;;;2.70;1.80;;;26.30;46.70;;;;;;5001193;28;21094;-88
2022/08/06 12:48:23;;;;;;;2.97;2.03;;;26.00;46.80;;;;;;5012058;28;20440;-88
2022/08/06 12:50:48;;;;;;;6.03;2.13;;;27.20;48.50;;;;;;5009203;28;20736;-87
2022/08/06 12:53:18;;;;;;;4.53;2.20;;;27.50;49.20;;;;;;5007896;28;20971;-89
2022/08/06 12:55:45;;;;;;;2.10;1.90;;;27.90;48.20;;;;;;5003259;28;20223;-85
2022/08/06 12:58:17;;;;;;;3.20;2.00;;;26.40;46.70;;;;;;5017510;28;20542;-88
2022/08/06 13:00:48;;;;;;;2.20;1.90;;;27.20;46.70;;;;;;5026329;28;20448;-91
2022/08/06 13:03:21;;;;;;;2.30;2.10;;;27.70;47.30;;;;;;5030195;28;20426;-90
2022/08/06 13:05:47;;;;;;;2.40;2.20;;;27.70;47.50;;;;;;5024574;28;20500;-88
2022/08/06 13:08:16;;;;;;;3.00;2.00;;;26.40;46.70;;;;;;5011235;28;20445;-89